sensor_id;sensor_type;location;lat;lon;timestamp;pressure;altitude;pressure_sealevel;temperature;humidity
56504;BME280;48812;51.606;-0.114;2023-03-19T00:01:16;100275.59;;;17.66;58.25
56504;BME280;48812;51.606;-0.114;2023-03-19T00:03:49;100287.25;;;17.65;57.91
56504;BME280;48812;51.606;-0.114;2023-03-19T00:06:22;100285.53;;;17.64;57.77
56504;BME280;48812;51.606;-0.114;2023-03-19T00:08:56;100296.22;;;17.64;58.36
56504;BME280;48812;51.606;-0.114;2023-03-19T00:11:29;100295.38;;;17.64;58.17
56504;BME280;48812;51.606;-0.114;2023-03-19T00:14:01;100290.00;;;17.64;58.66
56504;BME280;48812;51.606;-0.114;2023-03-19T00:16:37;100291.81;;;17.63;58.33
56504;BME280;48812;51.606;-0.114;2023-03-19T00:19:09;100292.78;;;17.62;58.11
56504;BME280;48812;51.606;-0.114;2023-03-19T00:21:41;100296.38;;;17.61;58.30
56504;BME280;48812;51.606;-0.114;2023-03-19T00:24:14;100302.63;;;17.62;58.07
56504;BME280;48812;51.606;-0.114;2023-03-19T00:26:48;100300.03;;;17.60;58.31
56504;BME280;48812;51.606;-0.114;2023-03-19T00:29:21;100294.66;;;17.60;58.28
56504;BME280;48812;51.606;-0.114;2023-03-19T00:31:54;100300.09;;;17.59;57.76
56504;BME280;48812;51.606;-0.114;2023-03-19T00:34:28;100308.13;;;17.59;58.14
56504;BME280;48812;51.606;-0.114;2023-03-19T00:37:02;100317.94;;;17.58;57.87
56504;BME280;48812;51.606;-0.114;2023-03-19T00:39:34;100317.94;;;17.58;58.29
56504;BME280;48812;51.606;-0.114;2023-03-19T00:42:07;100320.69;;;17.57;57.47
56504;BME280;48812;51.606;-0.114;2023-03-19T00:44:40;100318.09;;;17.55;57.65
56504;BME280;48812;51.606;-0.114;2023-03-19T00:47:13;100328.78;;;17.55;58.06
56504;BME280;48812;51.606;-0.114;2023-03-19T00:49:45;100331.47;;;17.55;57.78
56504;BME280;48812;51.606;-0.114;2023-03-19T00:52:18;100333.28;;;17.55;58.40
56504;BME280;48812;51.606;-0.114;2023-03-19T00:54:51;100333.34;;;17.53;57.98
56504;BME280;48812;51.606;-0.114;2023-03-19T00:57:24;100344.13;;;17.51;57.84
56504;BME280;48812;51.606;-0.114;2023-03-19T00:59:57;100353.03;;;17.52;57.88
56504;BME280;48812;51.606;-0.114;2023-03-19T01:02:31;100356.56;;;17.53;57.87
56504;BME280;48812;51.606;-0.114;2023-03-19T01:05:05;100362.00;;;17.51;58.31
56504;BME280;48812;51.606;-0.114;2023-03-19T01:07:39;100378.09;;;17.49;57.75
56504;BME280;48812;51.606;-0.114;2023-03-19T01:10:12;100370.09;;;17.49;58.02
56504;BME280;48812;51.606;-0.114;2023-03-19T01:12:45;100375.50;;;17.48;57.47
56504;BME280;48812;51.606;-0.114;2023-03-19T01:15:18;100373.78;;;17.47;57.09
56504;BME280;48812;51.606;-0.114;2023-03-19T01:17:50;100386.28;;;17.46;58.35
56504;BME280;48812;51.606;-0.114;2023-03-19T01:20:23;100390.78;;;17.46;57.76
56504;BME280;48812;51.606;-0.114;2023-03-19T01:22:56;100396.19;;;17.44;57.45
56504;BME280;48812;51.606;-0.114;2023-03-19T01:25:28;100404.31;;;17.43;57.59
56504;BME280;48812;51.606;-0.114;2023-03-19T01:28:06;100400.69;;;17.44;58.03
56504;BME280;48812;51.606;-0.114;2023-03-19T01:30:42;100391.88;;;17.42;58.10
56504;BME280;48812;51.606;-0.114;2023-03-19T01:33:41;100391.00;;;17.41;57.94
56504;BME280;48812;51.606;-0.114;2023-03-19T01:36:19;100400.84;;;17.41;57.86
56504;BME280;48812;51.606;-0.114;2023-03-19T01:39:03;100403.59;;;17.39;57.61
56504;BME280;48812;51.606;-0.114;2023-03-19T01:41:37;100402.72;;;17.39;57.78
56504;BME280;48812;51.606;-0.114;2023-03-19T01:44:35;100410.72;;;17.39;57.89
56504;BME280;48812;51.606;-0.114;2023-03-19T01:47:28;100415.38;;;17.35;57.88
56504;BME280;48812;51.606;-0.114;2023-03-19T01:50:27;100417.97;;;17.37;57.70
56504;BME280;48812;51.606;-0.114;2023-03-19T01:53:32;100438.56;;;17.35;57.69
56504;BME280;48812;51.606;-0.114;2023-03-19T01:56:22;100437.72;;;17.34;58.66
56504;BME280;48812;51.606;-0.114;2023-03-19T01:59:11;100439.59;;;17.32;57.76
56504;BME280;48812;51.606;-0.114;2023-03-19T02:02:13;100451.16;;;17.32;57.70
56504;BME280;48812;51.606;-0.114;2023-03-19T02:04:50;100450.28;;;17.32;57.72
56504;BME280;48812;51.606;-0.114;2023-03-19T02:07:28;100437.00;;;17.30;57.47
56504;BME280;48812;51.606;-0.114;2023-03-19T02:10:08;100463.72;;;17.30;57.29
56504;BME280;48812;51.606;-0.114;2023-03-19T02:12:41;100462.00;;;17.29;57.79
56504;BME280;48812;51.606;-0.114;2023-03-19T02:15:14;100464.75;;;17.28;58.02
56504;BME280;48812;51.606;-0.114;2023-03-19T02:17:48;100462.16;;;17.26;57.32
56504;BME280;48812;51.606;-0.114;2023-03-19T02:28:44;100461.41;;;17.23;57.70
56504;BME280;48812;51.606;-0.114;2023-03-19T02:31:22;100461.50;;;17.21;58.09
56504;BME280;48812;51.606;-0.114;2023-03-19T02:37:03;100454.50;;;17.19;58.00
56504;BME280;48812;51.606;-0.114;2023-03-19T02:42:19;100456.38;;;17.17;57.68
56504;BME280;48812;51.606;-0.114;2023-03-19T02:44:53;100445.69;;;17.17;57.53
56504;BME280;48812;51.606;-0.114;2023-03-19T02:47:26;100459.13;;;17.15;57.79
56504;BME280;48812;51.606;-0.114;2023-03-19T02:49:59;100456.53;;;17.13;57.61
56504;BME280;48812;51.606;-0.114;2023-03-19T02:52:31;100463.63;;;17.14;58.01
56504;BME280;48812;51.606;-0.114;2023-03-19T02:55:05;100455.69;;;17.13;58.03
56504;BME280;48812;51.606;-0.114;2023-03-19T02:57:39;100461.03;;;17.13;58.11
56504;BME280;48812;51.606;-0.114;2023-03-19T03:00:12;100449.56;;;17.11;57.86
56504;BME280;48812;51.606;-0.114;2023-03-19T03:02:45;100450.47;;;17.10;57.79
56504;BME280;48812;51.606;-0.114;2023-03-19T03:05:18;100462.09;;;17.09;57.44
56504;BME280;48812;51.606;-0.114;2023-03-19T03:07:52;100466.66;;;17.07;57.60
56504;BME280;48812;51.606;-0.114;2023-03-19T03:10:26;100469.34;;;17.07;57.46
56504;BME280;48812;51.606;-0.114;2023-03-19T03:13:00;100477.34;;;17.07;57.69
56504;BME280;48812;51.606;-0.114;2023-03-19T03:15:32;100475.59;;;17.06;57.87
56504;BME280;48812;51.606;-0.114;2023-03-19T03:18:05;100480.09;;;17.05;57.71
56504;BME280;48812;51.606;-0.114;2023-03-19T03:20:38;100474.81;;;17.04;58.15
56504;BME280;48812;51.606;-0.114;2023-03-19T03:23:10;100485.50;;;17.04;57.50
56504;BME280;48812;51.606;-0.114;2023-03-19T03:25:43;100475.78;;;17.03;58.08
56504;BME280;48812;51.606;-0.114;2023-03-19T03:28:15;100483.00;;;17.01;57.43
56504;BME280;48812;51.606;-0.114;2023-03-19T03:30:50;100487.41;;;17.02;57.39
56504;BME280;48812;51.606;-0.114;2023-03-19T03:33:24;100499.97;;;17.00;57.53
56504;BME280;48812;51.606;-0.114;2023-03-19T03:35:57;100501.75;;;16.99;57.78
56504;BME280;48812;51.606;-0.114;2023-03-19T03:38:30;100511.59;;;16.99;58.00
56504;BME280;48812;51.606;-0.114;2023-03-19T03:41:04;100509.84;;;16.98;57.61
56504;BME280;48812;51.606;-0.114;2023-03-19T03:43:37;100514.31;;;16.97;57.51
56504;BME280;48812;51.606;-0.114;2023-03-19T03:46:10;100509.06;;;16.95;57.55
56504;BME280;48812;51.606;-0.114;2023-03-19T03:48:43;100515.28;;;16.96;57.55
56504;BME280;48812;51.606;-0.114;2023-03-19T03:51:17;100513.53;;;16.95;57.56
56504;BME280;48812;51.606;-0.114;2023-03-19T03:53:49;100514.47;;;16.94;57.49
56504;BME280;48812;51.606;-0.114;2023-03-19T03:56:22;100510.16;;;16.91;57.72
56504;BME280;48812;51.606;-0.114;2023-03-19T03:58:55;100519.88;;;16.92;57.89
56504;BME280;48812;51.606;-0.114;2023-03-19T04:01:27;100524.44;;;16.90;57.93
56504;BME280;48812;51.606;-0.114;2023-03-19T04:04:01;100528.03;;;16.89;57.44
56504;BME280;48812;51.606;-0.114;2023-03-19T04:06:34;100521.00;;;16.88;57.78
56504;BME280;48812;51.606;-0.114;2023-03-19T04:09:18;100522.00;;;16.86;57.55
56504;BME280;48812;51.606;-0.114;2023-03-19T04:11:51;100526.47;;;16.85;58.02
56504;BME280;48812;51.606;-0.114;2023-03-19T04:14:23;100522.00;;;16.86;57.46
56504;BME280;48812;51.606;-0.114;2023-03-19T04:16:56;100532.75;;;16.84;57.47
56504;BME280;48812;51.606;-0.114;2023-03-19T04:19:28;100536.31;;;16.85;57.11
56504;BME280;48812;51.606;-0.114;2023-03-19T04:22:03;100539.91;;;16.84;57.27
56504;BME280;48812;51.606;-0.114;2023-03-19T04:24:37;100543.50;;;16.83;57.33
56504;BME280;48812;51.606;-0.114;2023-03-19T04:27:09;100556.84;;;16.83;57.43
56504;BME280;48812;51.606;-0.114;2023-03-19T04:29:43;100558.66;;;16.82;57.75
56504;BME280;48812;51.606;-0.114;2023-03-19T04:32:16;100556.91;;;16.81;57.41
56504;BME280;48812;51.606;-0.114;2023-03-19T04:34:49;100570.38;;;16.80;57.40
56504;BME280;48812;51.606;-0.114;2023-03-19T04:37:22;100569.50;;;16.79;57.69
56504;BME280;48812;51.606;-0.114;2023-03-19T04:39:56;100571.38;;;16.77;57.29
56504;BME280;48812;51.606;-0.114;2023-03-19T04:42:29;100580.31;;;16.76;57.41
56504;BME280;48812;51.606;-0.114;2023-03-19T04:45:21;100592.00;;;16.73;57.59
56504;BME280;48812;51.606;-0.114;2023-03-19T04:47:54;100586.66;;;16.73;57.41
56504;BME280;48812;51.606;-0.114;2023-03-19T04:50:27;100600.94;;;16.72;57.58
56504;BME280;48812;51.606;-0.114;2023-03-19T04:53:00;100599.22;;;16.71;57.87
56504;BME280;48812;51.606;-0.114;2023-03-19T04:55:34;100607.31;;;16.70;57.35
56504;BME280;48812;51.606;-0.114;2023-03-19T04:58:10;100600.22;;;16.69;57.54
56504;BME280;48812;51.606;-0.114;2023-03-19T05:00:45;100613.59;;;16.69;57.57
56504;BME280;48812;51.606;-0.114;2023-03-19T05:03:23;100606.56;;;16.66;57.54
56504;BME280;48812;51.606;-0.114;2023-03-19T05:05:56;100614.56;;;16.66;57.59
56504;BME280;48812;51.606;-0.114;2023-03-19T05:08:29;100619.97;;;16.65;57.60
56504;BME280;48812;51.606;-0.114;2023-03-19T05:11:02;100610.31;;;16.62;57.69
56504;BME280;48812;51.606;-0.114;2023-03-19T05:13:43;100618.28;;;16.64;57.48
56504;BME280;48812;51.606;-0.114;2023-03-19T05:16:15;100613.84;;;16.63;57.87
56504;BME280;48812;51.606;-0.114;2023-03-19T05:18:48;100614.81;;;16.62;57.71
56504;BME280;48812;51.606;-0.114;2023-03-19T05:21:21;100620.16;;;16.62;57.78
56504;BME280;48812;51.606;-0.114;2023-03-19T05:23:56;100626.41;;;16.61;57.62
56504;BME280;48812;51.606;-0.114;2023-03-19T05:26:29;100623.81;;;16.59;57.48
56504;BME280;48812;51.606;-0.114;2023-03-19T05:29:10;100631.81;;;16.59;57.74
56504;BME280;48812;51.606;-0.114;2023-03-19T05:31:59;100638.16;;;16.56;57.09
56504;BME280;48812;51.606;-0.114;2023-03-19T05:34:36;100631.09;;;16.55;57.24
56504;BME280;48812;51.606;-0.114;2023-03-19T05:37:08;100639.09;;;16.55;57.65
56504;BME280;48812;51.606;-0.114;2023-03-19T05:39:42;100646.31;;;16.53;57.66
56504;BME280;48812;51.606;-0.114;2023-03-19T05:42:15;100645.50;;;16.51;57.81
56504;BME280;48812;51.606;-0.114;2023-03-19T05:44:48;100651.72;;;16.52;57.52
56504;BME280;48812;51.606;-0.114;2023-03-19T05:47:25;100658.06;;;16.49;57.49
56504;BME280;48812;51.606;-0.114;2023-03-19T05:50:01;100663.41;;;16.49;57.00
56504;BME280;48812;51.606;-0.114;2023-03-19T05:52:34;100666.13;;;16.48;57.63
56504;BME280;48812;51.606;-0.114;2023-03-19T05:55:08;100665.28;;;16.47;57.70
56504;BME280;48812;51.606;-0.114;2023-03-19T05:57:44;100670.75;;;16.44;57.60
56504;BME280;48812;51.606;-0.114;2023-03-19T06:00:22;100674.25;;;16.45;57.39
56504;BME280;48812;51.606;-0.114;2023-03-19T06:02:54;100673.47;;;16.43;57.32
56504;BME280;48812;51.606;-0.114;2023-03-19T06:05:50;100683.28;;;16.42;57.22
56504;BME280;48812;51.606;-0.114;2023-03-19T06:08:34;100686.03;;;16.40;57.41
56504;BME280;48812;51.606;-0.114;2023-03-19T06:11:18;100681.63;;;16.39;57.86
56504;BME280;48812;51.606;-0.114;2023-03-19T06:13:58;100681.69;;;16.38;57.58
56504;BME280;48812;51.606;-0.114;2023-03-19T06:16:32;100686.22;;;16.36;57.75
56504;BME280;48812;51.606;-0.114;2023-03-19T06:19:06;100690.63;;;16.37;57.34
56504;BME280;48812;51.606;-0.114;2023-03-19T06:21:38;100688.03;;;16.35;57.64
56504;BME280;48812;51.606;-0.114;2023-03-19T06:24:11;100690.69;;;16.35;57.44
56504;BME280;48812;51.606;-0.114;2023-03-19T06:26:43;100695.16;;;16.35;57.40
56504;BME280;48812;51.606;-0.114;2023-03-19T06:29:20;100697.81;;;16.35;57.19
56504;BME280;48812;51.606;-0.114;2023-03-19T06:32:00;100705.88;;;16.33;57.21
56504;BME280;48812;51.606;-0.114;2023-03-19T06:34:41;100711.22;;;16.33;57.39
56504;BME280;48812;51.606;-0.114;2023-03-19T06:37:13;100716.63;;;16.32;57.27
56504;BME280;48812;51.606;-0.114;2023-03-19T06:39:46;100720.25;;;16.31;57.17
56504;BME280;48812;51.606;-0.114;2023-03-19T06:42:18;100729.09;;;16.31;57.43
56504;BME280;48812;51.606;-0.114;2023-03-19T06:44:51;100731.84;;;16.30;57.69
56504;BME280;48812;51.606;-0.114;2023-03-19T06:47:25;100735.47;;;16.29;57.45
56504;BME280;48812;51.606;-0.114;2023-03-19T06:49:57;100734.56;;;16.28;57.17
56504;BME280;48812;51.606;-0.114;2023-03-19T06:52:30;100742.56;;;16.28;57.30
56504;BME280;48812;51.606;-0.114;2023-03-19T06:55:08;100745.25;;;16.28;57.54
56504;BME280;48812;51.606;-0.114;2023-03-19T06:57:41;100750.56;;;16.28;57.22
56504;BME280;48812;51.606;-0.114;2023-03-19T07:00:14;100752.38;;;16.28;57.66
56504;BME280;48812;51.606;-0.114;2023-03-19T07:02:46;100754.94;;;16.31;57.44
56504;BME280;48812;51.606;-0.114;2023-03-19T07:05:18;100752.31;;;16.29;57.28
56504;BME280;48812;51.606;-0.114;2023-03-19T07:07:51;100761.97;;;16.32;57.22
56504;BME280;48812;51.606;-0.114;2023-03-19T07:10:23;100754.81;;;16.34;57.61
56504;BME280;48812;51.606;-0.114;2023-03-19T07:12:56;100756.53;;;16.35;57.85
56504;BME280;48812;51.606;-0.114;2023-03-19T07:15:28;100760.00;;;16.37;57.43
56504;BME280;48812;51.606;-0.114;2023-03-19T07:18:01;100769.66;;;16.39;57.63
56504;BME280;48812;51.606;-0.114;2023-03-19T07:20:34;100774.09;;;16.40;57.79
56504;BME280;48812;51.606;-0.114;2023-03-19T07:23:07;100778.41;;;16.43;57.78
56504;BME280;48812;51.606;-0.114;2023-03-19T07:25:40;100782.81;;;16.44;58.36
56504;BME280;48812;51.606;-0.114;2023-03-19T07:28:13;100786.28;;;16.46;57.98
56504;BME280;48812;51.606;-0.114;2023-03-19T07:30:45;100793.31;;;16.49;57.73
56504;BME280;48812;51.606;-0.114;2023-03-19T07:33:19;100800.31;;;16.51;58.13
56504;BME280;48812;51.606;-0.114;2023-03-19T07:35:51;100794.09;;;16.51;57.77
56504;BME280;48812;51.606;-0.114;2023-03-19T07:38:24;100808.19;;;16.54;57.98
56504;BME280;48812;51.606;-0.114;2023-03-19T07:40:56;100806.31;;;16.56;58.19
56504;BME280;48812;51.606;-0.114;2023-03-19T07:43:34;100813.34;;;16.59;58.13
56504;BME280;48812;51.606;-0.114;2023-03-19T07:46:06;100813.34;;;16.59;57.83
56504;BME280;48812;51.606;-0.114;2023-03-19T07:48:39;100815.94;;;16.61;57.94
56504;BME280;48812;51.606;-0.114;2023-03-19T07:51:11;100821.28;;;16.61;57.78
56504;BME280;48812;51.606;-0.114;2023-03-19T07:53:44;100819.41;;;16.63;57.88
56504;BME280;48812;51.606;-0.114;2023-03-19T07:56:16;100819.34;;;16.64;58.32
56504;BME280;48812;51.606;-0.114;2023-03-19T07:58:49;100817.41;;;16.68;58.05
56504;BME280;48812;51.606;-0.114;2023-03-19T08:01:21;100820.97;;;16.68;58.02
56504;BME280;48812;51.606;-0.114;2023-03-19T08:03:54;100826.22;;;16.70;57.91
56504;BME280;48812;51.606;-0.114;2023-03-19T08:06:26;100833.28;;;16.71;58.26
56504;BME280;48812;51.606;-0.114;2023-03-19T08:08:59;100824.34;;;16.72;57.86
56504;BME280;48812;51.606;-0.114;2023-03-19T08:11:31;100834.09;;;16.73;57.83
56504;BME280;48812;51.606;-0.114;2023-03-19T08:14:04;100830.44;;;16.75;58.50
56504;BME280;48812;51.606;-0.114;2023-03-19T08:16:37;100847.31;;;16.76;58.03
56504;BME280;48812;51.606;-0.114;2023-03-19T08:19:09;100844.50;;;16.79;58.36
56504;BME280;48812;51.606;-0.114;2023-03-19T08:21:42;100850.63;;;16.81;58.38
56504;BME280;48812;51.606;-0.114;2023-03-19T08:24:14;100855.06;;;16.82;58.35
56504;BME280;48812;51.606;-0.114;2023-03-19T08:26:47;100859.47;;;16.83;57.84
56504;BME280;48812;51.606;-0.114;2023-03-19T08:29:19;100862.03;;;16.86;58.18
56504;BME280;48812;51.606;-0.114;2023-03-19T08:31:53;100854.00;;;16.86;57.92
56504;BME280;48812;51.606;-0.114;2023-03-19T08:34:25;100857.53;;;16.87;58.05
56504;BME280;48812;51.606;-0.114;2023-03-19T08:36:58;100860.16;;;16.88;58.50
56504;BME280;48812;51.606;-0.114;2023-03-19T08:39:30;100864.63;;;16.88;58.42
56504;BME280;48812;51.606;-0.114;2023-03-19T08:42:03;100873.38;;;16.91;58.48
56504;BME280;48812;51.606;-0.114;2023-03-19T08:44:35;100875.09;;;16.92;58.47
56504;BME280;48812;51.606;-0.114;2023-03-19T08:47:08;100873.25;;;16.94;58.81
56504;BME280;48812;51.606;-0.114;2023-03-19T08:49:40;100877.69;;;16.94;58.53
56504;BME280;48812;51.606;-0.114;2023-03-19T08:52:13;100889.28;;;16.94;58.46
56504;BME280;48812;51.606;-0.114;2023-03-19T08:54:45;100886.53;;;16.96;58.79
56504;BME280;48812;51.606;-0.114;2023-03-19T08:57:18;100889.09;;;16.98;58.55
56504;BME280;48812;51.606;-0.114;2023-03-19T08:59:53;100907.81;;;16.98;58.88
56504;BME280;48812;51.606;-0.114;2023-03-19T09:02:26;100905.13;;;16.98;58.15
56504;BME280;48812;51.606;-0.114;2023-03-19T09:04:58;100912.22;;;16.99;58.86
56504;BME280;48812;51.606;-0.114;2023-03-19T09:07:31;100915.75;;;16.99;58.80
56504;BME280;48812;51.606;-0.114;2023-03-19T09:10:03;100913.09;;;16.99;58.44
56504;BME280;48812;51.606;-0.114;2023-03-19T09:12:36;100917.56;;;16.99;58.71
56504;BME280;48812;51.606;-0.114;2023-03-19T09:15:08;100925.59;;;16.99;58.38
56504;BME280;48812;51.606;-0.114;2023-03-19T09:17:41;100927.31;;;17.00;58.33
56504;BME280;48812;51.606;-0.114;2023-03-19T09:20:14;100924.66;;;17.00;58.37
56504;BME280;48812;51.606;-0.114;2023-03-19T09:22:46;100920.25;;;16.99;58.16
56504;BME280;48812;51.606;-0.114;2023-03-19T09:25:19;100921.09;;;16.99;58.22
56504;BME280;48812;51.606;-0.114;2023-03-19T09:27:51;100921.03;;;17.01;58.23
56504;BME280;48812;51.606;-0.114;2023-03-19T09:30:24;100922.84;;;17.00;58.44
56504;BME280;48812;51.606;-0.114;2023-03-19T09:32:56;100921.03;;;17.01;58.18
56504;BME280;48812;51.606;-0.114;2023-03-19T09:35:29;100930.88;;;17.00;58.03
56504;BME280;48812;51.606;-0.114;2023-03-19T09:38:02;100930.88;;;17.00;58.63
56504;BME280;48812;51.606;-0.114;2023-03-19T09:40:42;100934.38;;;17.01;58.36
56504;BME280;48812;51.606;-0.114;2023-03-19T09:46:18;100933.53;;;17.00;58.32
56504;BME280;48812;51.606;-0.114;2023-03-19T09:49:25;100935.22;;;17.03;58.11
56504;BME280;48812;51.606;-0.114;2023-03-19T09:52:01;100949.50;;;17.02;57.55
56504;BME280;48812;51.606;-0.114;2023-03-19T09:54:50;100953.97;;;17.01;57.50
56504;BME280;48812;51.606;-0.114;2023-03-19T09:57:25;100955.69;;;17.02;58.08
56504;BME280;48812;51.606;-0.114;2023-03-19T10:00:04;100949.50;;;17.02;58.07
56504;BME280;48812;51.606;-0.114;2023-03-19T10:02:40;100955.69;;;17.02;57.78
56504;BME280;48812;51.606;-0.114;2023-03-19T10:08:24;100956.59;;;17.03;57.67
56504;BME280;48812;51.606;-0.114;2023-03-19T10:13:51;100961.03;;;17.02;57.17
56504;BME280;48812;51.606;-0.114;2023-03-19T10:16:27;100970.88;;;17.02;57.55
56504;BME280;48812;51.606;-0.114;2023-03-19T10:19:02;100972.63;;;17.03;57.42
56504;BME280;48812;51.606;-0.114;2023-03-19T10:21:49;100968.13;;;17.03;56.97
56504;BME280;48812;51.606;-0.114;2023-03-19T10:24:31;100972.63;;;17.03;57.02
56504;BME280;48812;51.606;-0.114;2023-03-19T10:27:17;100974.34;;;17.04;57.09
56504;BME280;48812;51.606;-0.114;2023-03-19T10:29:51;100977.91;;;17.04;57.24
56504;BME280;48812;51.606;-0.114;2023-03-19T10:35:21;100992.13;;;17.05;57.37
56504;BME280;48812;51.606;-0.114;2023-03-19T10:37:54;100976.09;;;17.05;56.67
56504;BME280;48812;51.606;-0.114;2023-03-19T10:40:37;100976.09;;;17.05;56.84
56504;BME280;48812;51.606;-0.114;2023-03-19T10:43:21;100983.16;;;17.06;57.13
56504;BME280;48812;51.606;-0.114;2023-03-19T10:45:56;100977.81;;;17.06;56.77
56504;BME280;48812;51.606;-0.114;2023-03-19T10:48:28;100976.88;;;17.07;56.87
56504;BME280;48812;51.606;-0.114;2023-03-19T10:51:05;100972.47;;;17.06;57.27
56504;BME280;48812;51.606;-0.114;2023-03-19T10:53:38;100978.69;;;17.06;56.54
56504;BME280;48812;51.606;-0.114;2023-03-19T10:56:37;100985.75;;;17.07;56.83
56504;BME280;48812;51.606;-0.114;2023-03-19T10:59:38;100992.91;;;17.07;56.49
56504;BME280;48812;51.606;-0.114;2023-03-19T11:02:19;100991.09;;;17.07;56.60
56504;BME280;48812;51.606;-0.114;2023-03-19T11:08:06;100992.00;;;17.08;56.57
56504;BME280;48812;51.606;-0.114;2023-03-19T11:11:00;100993.69;;;17.09;56.47
56504;BME280;48812;51.606;-0.114;2023-03-19T11:13:33;100997.34;;;17.08;56.40
56504;BME280;48812;51.606;-0.114;2023-03-19T11:16:07;101000.00;;;17.08;56.51
56504;BME280;48812;51.606;-0.114;2023-03-19T11:18:39;100994.66;;;17.08;56.47
56504;BME280;48812;51.606;-0.114;2023-03-19T11:21:29;100989.38;;;17.06;56.82
56504;BME280;48812;51.606;-0.114;2023-03-19T11:24:04;100992.13;;;17.05;56.77
56504;BME280;48812;51.606;-0.114;2023-03-19T11:26:42;100995.69;;;17.04;56.69
56504;BME280;48812;51.606;-0.114;2023-03-19T11:29:28;101000.13;;;17.05;56.60
56504;BME280;48812;51.606;-0.114;2023-03-19T11:35:22;101000.19;;;17.03;56.40
56504;BME280;48812;51.606;-0.114;2023-03-19T11:38:01;101008.25;;;17.02;56.79
56504;BME280;48812;51.606;-0.114;2023-03-19T11:40:43;101017.19;;;17.01;56.09
56504;BME280;48812;51.606;-0.114;2023-03-19T11:43:43;101010.13;;;17.00;56.18
56504;BME280;48812;51.606;-0.114;2023-03-19T11:46:35;101005.72;;;16.99;56.12
56504;BME280;48812;51.606;-0.114;2023-03-19T11:49:30;101003.03;;;16.99;55.92
56504;BME280;48812;51.606;-0.114;2023-03-19T11:52:17;101011.84;;;17.01;56.36
56504;BME280;48812;51.606;-0.114;2023-03-19T11:55:19;101004.78;;;17.00;56.42
56504;BME280;48812;51.606;-0.114;2023-03-19T11:58:07;101006.56;;;16.99;56.03
56504;BME280;48812;51.606;-0.114;2023-03-19T12:00:51;101010.25;;;16.96;56.18
56504;BME280;48812;51.606;-0.114;2023-03-19T12:12:27;101019.19;;;16.95;55.99
56504;BME280;48812;51.606;-0.114;2023-03-19T12:17:37;101031.75;;;16.93;55.93
56504;BME280;48812;51.606;-0.114;2023-03-19T12:20:40;101024.66;;;16.92;56.38
56504;BME280;48812;51.606;-0.114;2023-03-19T12:26:03;101023.84;;;16.90;56.41
56504;BME280;48812;51.606;-0.114;2023-03-19T12:34:32;101029.25;;;16.89;56.57
56504;BME280;48812;51.606;-0.114;2023-03-19T12:37:34;101025.84;;;16.85;55.83
56504;BME280;48812;51.606;-0.114;2023-03-19T12:42:58;101032.09;;;16.84;56.36
56504;BME280;48812;51.606;-0.114;2023-03-19T12:45:37;101036.59;;;16.84;55.84
56504;BME280;48812;51.606;-0.114;2023-03-19T12:48:24;101034.91;;;16.81;55.96
56504;BME280;48812;51.606;-0.114;2023-03-19T12:51:05;101036.72;;;16.81;56.03
56504;BME280;48812;51.606;-0.114;2023-03-19T12:53:53;101040.31;;;16.80;55.95
56504;BME280;48812;51.606;-0.114;2023-03-19T12:56:46;101023.41;;;16.79;56.11
56504;BME280;48812;51.606;-0.114;2023-03-19T12:59:36;101034.09;;;16.79;55.77
56504;BME280;48812;51.606;-0.114;2023-03-19T13:10:50;101035.03;;;16.78;56.35
56504;BME280;48812;51.606;-0.114;2023-03-19T13:13:43;101035.00;;;16.80;55.65
56504;BME280;48812;51.606;-0.114;2023-03-19T13:22:14;101035.97;;;16.77;55.58
56504;BME280;48812;51.606;-0.114;2023-03-19T13:24:49;101029.75;;;16.76;55.90
56504;BME280;48812;51.606;-0.114;2023-03-19T13:27:32;101030.63;;;16.77;56.37
56504;BME280;48812;51.606;-0.114;2023-03-19T13:32:48;101021.44;;;16.84;55.58
56504;BME280;48812;51.606;-0.114;2023-03-19T13:38:10;101022.81;;;16.94;55.73
56504;BME280;48812;51.606;-0.114;2023-03-19T13:40:53;101023.56;;;16.98;55.55
56504;BME280;48812;51.606;-0.114;2023-03-19T13:54:16;101022.53;;;17.01;55.38
56504;BME280;48812;51.606;-0.114;2023-03-19T13:59:37;101016.09;;;17.06;55.16
56504;BME280;48812;51.606;-0.114;2023-03-19T14:04:58;101016.81;;;17.10;55.13
56504;BME280;48812;51.606;-0.114;2023-03-19T14:07:36;101020.41;;;17.09;54.82
56504;BME280;48812;51.606;-0.114;2023-03-19T14:10:14;101023.09;;;17.09;54.64
56504;BME280;48812;51.606;-0.114;2023-03-19T14:12:50;101019.63;;;17.07;55.18
56504;BME280;48812;51.606;-0.114;2023-03-19T14:15:27;101026.78;;;17.06;55.05
56504;BME280;48812;51.606;-0.114;2023-03-19T14:18:02;101022.41;;;17.04;55.12
56504;BME280;48812;51.606;-0.114;2023-03-19T14:20:49;101031.38;;;17.03;55.26
56504;BME280;48812;51.606;-0.114;2023-03-19T14:23:26;101035.78;;;17.04;55.07
56504;BME280;48812;51.606;-0.114;2023-03-19T14:26:18;101030.38;;;17.05;55.25
56504;BME280;48812;51.606;-0.114;2023-03-19T14:28:55;101026.72;;;17.08;55.02
56504;BME280;48812;51.606;-0.114;2023-03-19T14:31:39;101037.22;;;17.12;54.73
56504;BME280;48812;51.606;-0.114;2023-03-19T14:37:21;101046.53;;;17.67;53.73
56504;BME280;48812;51.606;-0.114;2023-03-19T14:40:06;101046.38;;;17.91;53.19
56504;BME280;48812;51.606;-0.114;2023-03-19T14:43:02;101041.63;;;17.97;53.37
56504;BME280;48812;51.606;-0.114;2023-03-19T14:52:11;101049.50;;;17.80;53.52
56504;BME280;48812;51.606;-0.114;2023-03-19T14:54:57;101053.16;;;17.79;52.63
56504;BME280;48812;51.606;-0.114;2023-03-19T14:57:35;101054.88;;;17.80;53.52
56504;BME280;48812;51.606;-0.114;2023-03-19T15:00:26;101053.88;;;17.82;52.96
56504;BME280;48812;51.606;-0.114;2023-03-19T15:03:00;101056.69;;;17.79;53.12
56504;BME280;48812;51.606;-0.114;2023-03-19T15:05:33;101066.72;;;17.74;53.70
56504;BME280;48812;51.606;-0.114;2023-03-19T15:08:11;101062.50;;;17.68;52.60
56504;BME280;48812;51.606;-0.114;2023-03-19T15:19:11;101062.03;;;17.59;53.81